Aérodrome :
LOGIN :

S'inscrire | Disclaimer

   EN    FR    IT 

 










Légende :    VFR   VFR Marginal   IFR   IFR Intensif   IFR Très Intensif
Visi : 
Plafond : 
>= 8 km
>= 3000ft
5 à 8 km
1000 à 3000 ft
1500m à 5 km
500 à 1000 ft
800 à 1500m
200 à 500 ft
< 800m
< 200 ft
Symboles :   Orages  Brouillard  Fortes neiges  Fortes précipitations  Vent > 20 kt
SIGMETs :   Divers  Orages  Givrage  Turbulence  Onde Orograph.  Cendres Volcan.






- Altitude de l'aérodrome : 1066 ft


EGOM - RAF Spadeadam

DERNIER METAR :
  • 181650Z 10008KT 9999 -RA FEW011 SCT035 BKN060 12/10 Q1017 RMK BLU

METARs EXPIRÉS :
  • 181620Z AUTO 09009KT 9999 // SCT010/// OVC040/// 13/11 Q1017
  • 181550Z 08008KT 9999 SCT015 BKN047 ///220 12/11 Q1017 REBLSN RMK WHT
  • 181520Z AUTO 05007KT 9000 -RA SCT012/// BKN041/// 13/11 Q1017
  • 181450Z AUTO 12010KT 9999 SCT014/// 15/11 Q1016
  • 181420Z AUTO 11005KT 9999 // SCT015/// BKN024/// 14/11 Q1016
  • 181350Z AUTO 10005KT 9999 // SCT007/// 14/10 Q1016
  • 181320Z AUTO 09005KT 9999 -RA FEW009/// BKN034/// 14/12 Q1016
  • 181250Z AUTO 11006KT 9999 FEW011/// BKN035/// 14/11 Q1016
  • 181220Z AUTO 10006KT 9999 // BKN006/// SCT038/// 14/12 Q1016

Prévision TAF périmée.



MET'MAP, la Météo Aéronautique d'un coup d'oeil ! - Copyright ORBIFLY Décembre 2007 - Disclaimer

ORBIFLY MET'MAP TEAM :

Programmation & Développement : Alexandra Zaïnal
Sur une idée originale de : Baudouin d'Aumeries
Soutien technique & logistique : Manuel Goepfert
Assistance : Marc-Olivier Méhu




SOURCES & CREDITS :

   NOAA